Time;durP1;ratioP1;P1;durP2;ratioP2;P2;SDS_P1;SDS_P2;PMS_P1;PMS_P2;Temp;Humidity;BMP_temperature;BMP_pressure;BME280_temperature;BME280_humidity;BME280_pressure;Samples;Min_cycle;Max_cycle;Signal;HPM_P1;HPM_P2
2022/10/12 00:00:20;;;;;;;2.53;2.03;;;17.20;63.00;18.30;101674.00;;;;4970099;28;20184;-48
2022/10/12 00:02:46;;;;;;;2.63;1.80;;;17.20;63.00;18.30;101671.00;;;;4970128;28;20172;-50
2022/10/12 00:05:12;;;;;;;2.50;2.20;;;17.20;63.00;18.30;101662.00;;;;4969607;28;20183;-50
2022/10/12 00:07:37;;;;;;;3.33;2.13;;;17.20;63.10;18.30;101666.00;;;;4970434;28;20611;-51
2022/10/12 00:10:03;;;;;;;2.83;2.40;;;17.20;63.10;18.30;101666.00;;;;4970080;28;20237;-49
2022/10/12 00:12:29;;;;;;;2.10;2.00;;;17.10;63.00;18.30;101667.00;;;;4970537;28;20180;-50
2022/10/12 00:14:55;;;;;;;2.57;2.20;;;17.10;63.00;18.30;101663.00;;;;4969699;28;20196;-50
2022/10/12 00:17:20;;;;;;;2.60;1.90;;;17.20;63.20;18.20;101665.00;;;;4969743;28;20189;-50
2022/10/12 00:19:48;;;;;;;2.43;2.13;;;17.20;63.30;18.30;101666.00;;;;4969838;28;20179;-50
2022/10/12 00:22:14;;;;;;;2.30;2.10;;;17.10;63.10;18.20;101666.00;;;;4966914;28;20633;-50
2022/10/12 00:24:40;;;;;;;2.83;2.10;;;17.10;63.10;18.20;101672.00;;;;4971724;28;20184;-50
2022/10/12 00:27:05;;;;;;;2.77;2.10;;;17.10;63.20;18.20;101673.00;;;;4972832;28;20190;-51
2022/10/12 00:29:31;;;;;;;2.33;2.13;;;17.10;63.20;18.20;101675.00;;;;4973265;28;20171;-50
2022/10/12 00:31:57;;;;;;;2.73;2.30;;;17.10;63.20;18.20;101676.00;;;;4973720;28;20588;-50
2022/10/12 00:34:22;;;;;;;2.63;2.23;;;17.10;63.20;18.20;101674.00;;;;4972515;28;20327;-51
2022/10/12 00:36:48;;;;;;;2.40;2.20;;;17.00;63.10;18.20;101682.00;;;;4972215;28;20223;-50
2022/10/12 00:39:14;;;;;;;2.40;2.20;;;17.00;63.10;18.20;101688.00;;;;4973192;28;20180;-50
2022/10/12 00:41:41;;;;;;;2.40;2.20;;;17.00;63.10;18.20;101673.00;;;;4973132;28;20642;-50
2022/10/12 00:44:35;;;;;;;2.43;2.23;;;17.00;63.10;18.20;101682.00;;;;4972001;28;20173;-50
2022/10/12 00:47:06;;;;;;;2.90;2.20;;;17.00;63.10;18.10;101668.00;;;;4973343;28;20194;-50
2022/10/12 00:49:31;;;;;;;2.10;1.90;;;17.00;63.10;18.10;101665.00;;;;4971477;28;20523;-52
2022/10/12 00:52:04;;;;;;;2.20;2.00;;;17.00;63.10;18.10;101663.00;;;;4972597;28;20176;-50
2022/10/12 00:54:32;;;;;;;2.57;2.30;;;17.00;63.10;18.10;101658.00;;;;4972078;28;20739;-50
2022/10/12 00:56:58;;;;;;;2.60;2.10;;;16.90;63.10;18.10;101672.00;;;;4972758;28;20220;-49
2022/10/12 00:59:33;;;;;;;2.30;2.10;;;17.00;63.10;18.10;101671.00;;;;4972328;28;20554;-48
2022/10/12 01:01:59;;;;;;;2.70;2.20;;;16.90;63.00;18.00;101655.00;;;;4971690;28;20175;-49
2022/10/12 01:04:24;;;;;;;2.27;2.07;;;17.00;63.10;18.00;101658.00;;;;4971495;28;20500;-49
2022/10/12 01:06:51;;;;;;;2.30;2.10;;;16.90;63.20;18.00;101637.00;;;;4971571;28;20196;-50
2022/10/12 01:09:16;;;;;;;2.43;2.23;;;16.90;63.10;18.00;101645.00;;;;4971816;28;20185;-50
2022/10/12 01:11:42;;;;;;;2.30;2.10;;;16.90;63.10;18.00;101661.00;;;;4955667;28;20184;-49
2022/10/12 01:14:08;;;;;;;2.20;2.00;;;16.90;63.10;18.00;101649.00;;;;4972486;28;20547;-49
2022/10/12 01:16:38;;;;;;;2.50;2.20;;;16.90;63.10;18.00;101653.00;;;;4973006;28;20190;-50
2022/10/12 01:19:41;;;;;;;2.20;2.00;;;16.90;63.10;18.00;101649.00;;;;4971462;28;20167;-49
2022/10/12 01:22:09;;;;;;;2.10;2.00;;;16.90;63.10;17.90;101657.00;;;;4971540;28;20169;-50
2022/10/12 01:24:53;;;;;;;2.30;2.00;;;16.90;63.20;18.00;101662.00;;;;4970902;28;20171;-50
2022/10/12 01:27:46;;;;;;;2.30;2.10;;;16.90;63.20;17.90;101658.00;;;;4970894;28;20622;-51
2022/10/12 01:30:35;;;;;;;2.33;2.07;;;16.90;63.30;17.90;101655.00;;;;4971364;28;20172;-50
2022/10/12 01:33:33;;;;;;;4.60;2.37;;;16.80;63.40;17.90;101650.00;;;;4970927;28;20690;-50
2022/10/12 01:36:31;;;;;;;2.70;2.13;;;16.80;63.70;17.90;101638.00;;;;4966466;28;20221;-49
2022/10/12 01:39:34;;;;;;;2.30;2.10;;;16.80;63.90;17.80;101648.00;;;;4970933;28;20177;-50
2022/10/12 01:42:19;;;;;;;3.37;2.10;;;16.80;63.90;17.80;101639.00;;;;4957031;28;20673;-49
2022/10/12 01:44:44;;;;;;;2.73;2.20;;;16.80;64.00;17.80;101652.00;;;;4970290;28;20530;-50
2022/10/12 01:47:10;;;;;;;2.23;2.03;;;16.80;64.00;17.80;101644.00;;;;4971598;28;20185;-49
2022/10/12 01:49:36;;;;;;;2.20;2.07;;;16.70;63.90;17.80;101640.00;;;;4971944;28;20173;-50
2022/10/12 01:52:21;;;;;;;2.30;2.10;;;16.70;63.90;17.80;101640.00;;;;4971548;28;20750;-50
2022/10/12 01:54:55;;;;;;;2.10;1.90;;;16.70;63.90;17.70;101643.00;;;;4970373;28;20699;-51
2022/10/12 01:57:55;;;;;;;2.57;2.23;;;16.70;63.90;17.70;101640.00;;;;4970219;28;20220;-49
2022/10/12 02:00:20;;;;;;;2.27;2.00;;;16.70;63.90;17.70;101632.00;;;;4963816;28;20658;-49
2022/10/12 02:03:15;;;;;;;2.17;2.00;;;16.70;63.90;17.70;101630.00;;;;4972116;28;20224;-48
2022/10/12 02:06:17;;;;;;;2.20;2.00;;;16.70;63.90;17.70;101628.00;;;;4973248;28;20203;-51
2022/10/12 02:09:21;;;;;;;2.73;2.20;;;16.70;63.80;17.70;101632.00;;;;4973406;28;20206;-50
2022/10/12 02:11:47;;;;;;;2.00;1.90;;;16.70;63.80;17.70;101637.00;;;;4969495;28;20599;-50
2022/10/12 02:14:16;;;;;;;2.33;2.13;;;16.70;63.80;17.70;101644.00;;;;4970055;28;20189;-51
2022/10/12 02:16:50;;;;;;;2.10;2.00;;;16.70;63.70;17.70;101639.00;;;;4970615;28;20190;-50
2022/10/12 02:19:21;;;;;;;2.20;2.00;;;16.60;63.60;17.70;101637.00;;;;4971444;28;20165;-51
2022/10/12 02:21:47;;;;;;;2.53;1.90;;;16.70;63.60;17.70;101625.00;;;;4970578;28;20691;-51
2022/10/12 02:24:12;;;;;;;2.10;1.90;;;16.60;63.50;17.70;101646.00;;;;4970145;28;20177;-49
2022/10/12 02:26:40;;;;;;;2.00;1.80;;;16.60;63.50;17.70;101636.00;;;;4970142;28;20198;-49
2022/10/12 02:29:08;;;;;;;2.10;2.00;;;16.60;63.50;17.60;101634.00;;;;4970545;28;20657;-48
2022/10/12 02:31:56;;;;;;;2.17;2.07;;;16.60;63.50;17.60;101624.00;;;;4970048;28;20198;-49
2022/10/12 02:34:37;;;;;;;2.30;2.10;;;16.60;63.50;17.60;101587.00;;;;4969774;28;20197;-50
2022/10/12 02:37:15;;;;;;;2.50;2.17;;;16.60;63.50;17.60;101626.00;;;;4970226;28;20685;-49
2022/10/12 02:39:53;;;;;;;2.37;2.07;;;16.60;64.30;17.60;101615.00;;;;4954690;28;20201;-50
2022/10/12 02:42:26;;;;;;;2.20;2.03;;;16.60;63.40;17.60;101591.00;;;;4970054;28;20162;-49
2022/10/12 02:44:53;;;;;;;2.30;2.10;;;16.60;63.40;17.60;101621.00;;;;4969527;28;20658;-50
2022/10/12 02:47:18;;;;;;;2.10;1.97;;;16.60;63.30;17.60;101606.00;;;;4969129;28;20194;-50
2022/10/12 02:49:44;;;;;;;2.20;2.00;;;16.60;63.30;17.60;101598.00;;;;4969533;28;20709;-51
2022/10/12 02:52:10;;;;;;;2.17;2.00;;;16.60;63.30;17.60;101600.00;;;;4953831;28;20176;-50
2022/10/12 02:54:36;;;;;;;2.00;1.90;;;16.50;63.20;17.60;101589.00;;;;4969384;28;20213;-50
2022/10/12 02:57:01;;;;;;;2.20;2.00;;;16.50;63.10;17.60;101588.00;;;;4967343;28;20686;-51
2022/10/12 02:59:27;;;;;;;2.17;2.00;;;16.50;63.10;17.60;101583.00;;;;4968190;28;20532;-49
2022/10/12 03:01:53;;;;;;;2.10;1.90;;;16.50;63.30;17.60;101576.00;;;;4969529;28;20195;-50
2022/10/12 03:04:19;;;;;;;2.40;2.20;;;16.50;63.10;17.60;101587.00;;;;4970487;28;20181;-51
2022/10/12 03:06:45;;;;;;;2.30;2.00;;;16.50;63.10;17.60;101587.00;;;;4970125;28;20192;-50
2022/10/12 03:09:10;;;;;;;2.20;2.00;;;16.50;63.20;17.50;101586.00;;;;4970123;28;20181;-50
2022/10/12 03:11:42;;;;;;;2.20;2.00;;;16.40;63.10;17.50;101580.00;;;;4970784;28;20178;-51
2022/10/12 03:14:13;;;;;;;1.90;1.80;;;16.40;63.20;17.50;101568.00;;;;4970545;28;20236;-50
2022/10/12 03:16:39;;;;;;;2.10;1.87;;;16.40;63.10;17.50;101572.00;;;;4970492;28;20928;-50
2022/10/12 03:19:05;;;;;;;2.40;2.20;;;16.40;63.10;17.50;101561.00;;;;4969259;28;20261;-50
2022/10/12 03:21:31;;;;;;;2.00;1.90;;;16.40;63.10;17.50;101567.00;;;;4970322;28;20225;-51
2022/10/12 03:23:56;;;;;;;2.20;2.00;;;16.40;63.10;17.50;101569.00;;;;4969766;28;20173;-49
2022/10/12 03:26:22;;;;;;;2.17;1.97;;;16.40;63.10;17.50;101565.00;;;;4969968;28;20190;-49
2022/10/12 03:28:48;;;;;;;10.70;2.20;;;16.40;63.30;17.40;101570.00;;;;4970316;28;20177;-50
2022/10/12 03:31:13;;;;;;;4.17;1.90;;;16.40;63.40;17.40;101570.00;;;;4970335;28;20169;-50
2022/10/12 03:33:39;;;;;;;3.13;2.20;;;16.40;63.40;17.40;101540.00;;;;4969758;28;20568;-50
2022/10/12 03:36:05;;;;;;;2.30;2.10;;;16.40;63.30;17.40;101565.00;;;;4969656;28;20271;-51
2022/10/12 03:38:31;;;;;;;2.10;1.90;;;16.40;63.20;17.40;101552.00;;;;4970462;28;20169;-50
2022/10/12 03:40:57;;;;;;;3.13;2.20;;;16.40;63.10;17.40;101565.00;;;;4970254;28;20655;-51
2022/10/12 03:43:23;;;;;;;2.67;2.00;;;16.30;63.80;17.40;101557.00;;;;4969925;28;20175;-50
2022/10/12 03:45:48;;;;;;;4.07;2.43;;;16.30;63.10;17.30;101546.00;;;;4968907;28;20177;-50
2022/10/12 03:48:14;;;;;;;2.50;2.30;;;16.30;63.10;17.30;101557.00;;;;4969194;28;20196;-50
2022/10/12 03:50:40;;;;;;;3.30;2.20;;;16.20;63.00;17.30;101563.00;;;;4970589;28;20173;-49
2022/10/12 03:53:06;;;;;;;4.03;2.10;;;16.20;63.00;17.30;101555.00;;;;4969943;28;20573;-49
2022/10/12 03:55:32;;;;;;;3.90;2.20;;;16.20;62.90;17.30;101555.00;;;;4970003;28;20665;-51
2022/10/12 03:57:57;;;;;;;3.97;2.20;;;16.10;62.80;17.30;101557.00;;;;4969482;28;20197;-50
2022/10/12 04:00:24;;;;;;;2.97;2.30;;;16.10;62.80;17.20;101559.00;;;;4967874;28;20191;-50
2022/10/12 04:02:49;;;;;;;2.50;2.30;;;16.10;62.70;17.20;101554.00;;;;4970278;28;20192;-50
2022/10/12 04:05:15;;;;;;;2.40;2.20;;;16.10;62.70;17.20;101564.00;;;;4969985;28;20599;-50
2022/10/12 04:07:41;;;;;;;2.27;2.07;;;16.10;62.50;17.20;101555.00;;;;4970557;28;20200;-49
2022/10/12 04:10:07;;;;;;;2.60;2.20;;;16.00;62.50;17.10;101551.00;;;;4969432;28;20226;-49
2022/10/12 04:12:33;;;;;;;3.57;2.30;;;16.10;62.50;17.10;101557.00;;;;4969565;28;20179;-50
2022/10/12 04:14:59;;;;;;;3.70;2.20;;;16.00;62.40;17.10;101567.00;;;;4969571;28;20206;-48
2022/10/12 04:17:24;;;;;;;2.83;2.30;;;16.10;63.30;17.20;101572.00;;;;4970625;28;20216;-50
2022/10/12 04:19:50;;;;;;;2.53;2.20;;;16.10;62.50;17.10;101562.00;;;;4968965;28;20178;-50
2022/10/12 04:22:16;;;;;;;5.13;2.30;;;16.10;62.40;17.10;101559.00;;;;4969007;28;20183;-50
2022/10/12 04:24:42;;;;;;;9.43;2.40;;;16.10;62.10;17.10;101549.00;;;;4968708;28;20184;-50
2022/10/12 04:27:07;;;;;;;3.93;2.30;;;16.10;62.30;17.10;101562.00;;;;4968796;28;20202;-50
2022/10/12 04:29:34;;;;;;;7.60;2.60;;;16.00;62.20;17.10;101560.00;;;;4969167;28;20173;-50
2022/10/12 04:31:59;;;;;;;6.13;2.00;;;16.00;62.20;17.10;101555.00;;;;4969763;28;20693;-50
2022/10/12 04:34:25;;;;;;;3.63;2.20;;;16.00;62.30;17.10;101559.00;;;;4969214;28;20193;-50
2022/10/12 04:36:51;;;;;;;3.60;2.20;;;16.10;62.40;17.10;101563.00;;;;4970375;28;20204;-51
2022/10/12 04:39:16;;;;;;;4.30;2.27;;;16.00;62.10;17.10;101560.00;;;;4970525;28;20178;-50
2022/10/12 04:41:42;;;;;;;4.53;2.43;;;16.00;62.40;17.10;101554.00;;;;4970149;28;20642;-50
2022/10/12 04:44:08;;;;;;;4.53;2.40;;;16.00;62.30;17.10;101557.00;;;;4969438;28;20177;-51
2022/10/12 04:46:33;;;;;;;5.43;2.20;;;16.00;62.40;17.10;101554.00;;;;4968694;28;20201;-51
2022/10/12 04:48:59;;;;;;;2.50;2.30;;;16.00;62.40;17.00;101556.00;;;;4969525;28;20177;-50
2022/10/12 04:51:25;;;;;;;3.10;2.20;;;16.00;62.40;17.00;101550.00;;;;4969778;28;20173;-50
2022/10/12 04:53:51;;;;;;;3.13;2.30;;;16.00;62.40;17.00;101543.00;;;;4969533;28;20185;-50
2022/10/12 04:56:17;;;;;;;3.60;2.30;;;16.00;62.40;17.00;101551.00;;;;4968888;28;20561;-50
2022/10/12 04:58:43;;;;;;;3.97;2.23;;;16.00;62.40;17.00;101543.00;;;;4969912;28;20197;-48
2022/10/12 05:01:09;;;;;;;3.40;2.20;;;16.00;62.40;17.00;101553.00;;;;4970222;28;20175;-49
2022/10/12 05:03:34;;;;;;;2.63;2.20;;;16.00;62.40;17.00;101548.00;;;;4969656;28;20195;-50
2022/10/12 05:06:00;;;;;;;3.50;2.30;;;15.90;62.30;16.90;101552.00;;;;4969800;28;20185;-51
2022/10/12 05:08:26;;;;;;;10.33;2.63;;;15.90;62.40;16.90;101551.00;;;;4969710;28;20299;-49
2022/10/12 05:10:52;;;;;;;4.23;2.20;;;15.90;62.60;16.90;101544.00;;;;4973328;28;20635;-49
2022/10/12 05:13:18;;;;;;;4.43;2.30;;;16.00;62.60;16.90;101547.00;;;;4972694;28;20174;-50
2022/10/12 05:15:45;;;;;;;3.23;2.13;;;16.10;62.50;16.90;101544.00;;;;4973046;28;20207;-49
2022/10/12 05:18:11;;;;;;;3.40;2.20;;;16.20;62.70;17.00;101526.00;;;;4972316;28;20212;-50
2022/10/12 05:20:37;;;;;;;2.83;2.20;;;16.30;62.30;17.00;101541.00;;;;4974592;28;20196;-49
2022/10/12 05:23:03;;;;;;;5.03;2.17;;;16.40;62.20;17.10;101546.00;;;;4974588;28;20177;-50
2022/10/12 05:25:29;;;;;;;2.53;2.07;;;16.50;61.90;17.10;101550.00;;;;4974768;28;20173;-49
2022/10/12 05:27:56;;;;;;;3.57;2.20;;;16.60;61.90;17.20;101547.00;;;;4971692;28;20280;-51
2022/10/12 05:30:23;;;;;;;2.80;2.10;;;16.70;61.70;17.20;101538.00;;;;4972014;28;20181;-50
2022/10/12 05:32:51;;;;;;;4.67;2.13;;;16.80;61.70;17.30;101543.00;;;;4955313;28;20189;-50
2022/10/12 05:35:17;;;;;;;2.50;2.10;;;16.80;61.70;17.30;101551.00;;;;4972040;28;20224;-50
2022/10/12 05:37:44;;;;;;;2.40;2.20;;;16.80;61.70;17.30;101544.00;;;;4971451;28;20193;-49
2022/10/12 05:40:11;;;;;;;2.43;2.00;;;16.80;61.80;17.30;101545.00;;;;4971296;28;20177;-50
2022/10/12 05:42:37;;;;;;;3.33;2.00;;;16.80;61.90;17.30;101543.00;;;;4973023;28;20180;-50
2022/10/12 05:45:05;;;;;;;2.07;1.90;;;16.80;62.00;17.30;101539.00;;;;4971780;28;20267;-49
2022/10/12 05:47:33;;;;;;;2.67;1.80;;;16.80;62.00;17.40;101547.00;;;;4972348;28;20283;-51
2022/10/12 05:49:59;;;;;;;2.20;2.00;;;16.80;62.10;17.40;101539.00;;;;4972220;28;20177;-49
2022/10/12 05:52:24;;;;;;;2.60;2.20;;;16.80;62.10;17.40;101541.00;;;;4971183;28;20316;-50
2022/10/12 05:54:50;;;;;;;2.00;1.90;;;16.80;62.10;17.40;101559.00;;;;4971839;28;20576;-50
2022/10/12 05:57:16;;;;;;;2.30;2.10;;;16.80;62.10;17.40;101554.00;;;;4972239;28;20755;-48
2022/10/12 05:59:42;;;;;;;2.00;1.90;;;16.90;62.20;17.40;101554.00;;;;4972926;28;20181;-50
2022/10/12 06:02:14;;;;;;;1.70;1.60;;;16.90;62.20;17.40;101558.00;;;;4972692;28;20276;-49
2022/10/12 06:04:40;;;;;;;2.10;1.90;;;16.80;62.20;17.40;101542.00;;;;4970553;28;20170;-49
2022/10/12 06:07:06;;;;;;;2.20;2.00;;;16.80;62.30;17.40;101559.00;;;;4971466;28;20804;-50
2022/10/12 06:09:31;;;;;;;2.20;2.00;;;16.80;62.30;17.40;101569.00;;;;4972536;28;20301;-49
2022/10/12 06:11:57;;;;;;;1.97;1.87;;;16.80;63.10;17.50;101570.00;;;;4972598;28;20277;-49
2022/10/12 06:14:23;;;;;;;2.00;1.90;;;16.80;62.10;17.50;101568.00;;;;4972050;28;20275;-49
2022/10/12 06:16:49;;;;;;;1.97;1.80;;;16.90;62.30;17.50;101565.00;;;;4972470;28;20239;-50
2022/10/12 06:19:14;;;;;;;2.27;1.93;;;16.90;62.30;17.50;101566.00;;;;4972036;28;20759;-51
2022/10/12 06:21:40;;;;;;;2.17;1.97;;;16.90;62.30;17.50;101571.00;;;;4969623;28;20231;-49
2022/10/12 06:24:06;;;;;;;2.00;1.83;;;16.90;62.30;17.50;101563.00;;;;4971281;28;20227;-50
2022/10/12 06:26:32;;;;;;;1.93;1.83;;;16.80;62.40;17.50;101561.00;;;;4971520;28;20207;-51
2022/10/12 06:28:59;;;;;;;2.10;1.90;;;16.80;62.10;17.50;101565.00;;;;4971630;28;20188;-50
2022/10/12 06:31:26;;;;;;;2.53;2.07;;;16.90;62.10;17.50;101566.00;;;;4971334;28;20605;-49
2022/10/12 06:33:52;;;;;;;2.10;1.90;;;17.00;62.20;17.50;101553.00;;;;4971026;28;20232;-50
2022/10/12 06:36:18;;;;;;;2.63;1.90;;;17.00;62.20;17.60;101565.00;;;;4971458;28;20211;-49
2022/10/12 06:38:44;;;;;;;2.03;1.83;;;17.00;62.20;17.60;101568.00;;;;4970541;28;20227;-49
2022/10/12 06:41:10;;;;;;;2.20;2.00;;;16.90;62.10;17.60;101576.00;;;;4971797;28;20177;-52
2022/10/12 06:43:36;;;;;;;3.50;2.40;;;16.90;62.20;17.60;101569.00;;;;4971506;28;20180;-50
2022/10/12 06:46:02;;;;;;;2.53;1.80;;;17.00;62.30;17.60;101570.00;;;;4971211;28;20185;-48
2022/10/12 06:48:28;;;;;;;1.90;1.80;;;17.00;62.20;17.60;101562.00;;;;4969227;28;20194;-49
2022/10/12 06:50:53;;;;;;;2.10;1.90;;;17.00;62.20;17.60;101561.00;;;;4967488;28;20181;-49
2022/10/12 06:53:19;;;;;;;2.37;1.80;;;17.00;62.20;17.60;101565.00;;;;4970568;28;20250;-49
2022/10/12 06:55:45;;;;;;;1.80;1.70;;;17.00;62.20;17.60;101554.00;;;;4970436;28;20265;-48
2022/10/12 06:58:11;;;;;;;2.10;1.90;;;16.90;62.20;17.60;101560.00;;;;4862219;28;20732;-49
2022/10/12 07:00:36;;;;;;;2.10;1.90;;;16.90;62.30;17.60;101567.00;;;;4969916;28;20185;-51
2022/10/12 07:03:02;;;;;;;2.20;2.00;;;16.90;62.30;17.60;101564.00;;;;4971169;28;20176;-51
2022/10/12 07:05:28;;;;;;;1.80;1.70;;;16.90;62.40;17.60;101571.00;;;;4970659;28;20196;-50
2022/10/12 07:07:54;;;;;;;2.10;1.90;;;16.90;62.40;17.60;101575.00;;;;4971106;28;20291;-50
2022/10/12 07:10:21;;;;;;;2.17;1.97;;;17.00;62.30;17.60;101581.00;;;;4984282;28;20195;-50
2022/10/12 07:12:50;;;;;;;2.00;1.90;;;17.00;62.20;17.60;101563.00;;;;4989742;28;20193;-50
2022/10/12 07:15:17;;;;;;;2.07;1.87;;;17.00;62.20;17.60;101570.00;;;;4986831;28;20201;-50
2022/10/12 07:17:43;;;;;;;2.27;2.07;;;17.00;62.20;17.60;101563.00;;;;4969096;28;20275;-50
2022/10/12 07:20:10;;;;;;;1.90;1.80;;;17.00;62.20;17.60;101565.00;;;;4970590;28;20721;-51
2022/10/12 07:22:36;;;;;;;2.10;1.90;;;17.00;62.30;17.60;101569.00;;;;4970287;28;20171;-50
2022/10/12 07:25:04;;;;;;;2.13;1.93;;;17.00;62.40;17.60;101561.00;;;;4968880;28;20208;-50
2022/10/12 07:27:30;;;;;;;2.20;2.00;;;16.90;62.40;17.60;101566.00;;;;4952538;28;20223;-49
2022/10/12 07:29:56;;;;;;;2.00;1.90;;;17.00;62.30;17.60;101566.00;;;;4970648;28;20179;-49
2022/10/12 07:32:23;;;;;;;2.20;2.00;;;17.00;62.20;17.70;101568.00;;;;4967746;28;20185;-49
2022/10/12 07:34:50;;;;;;;2.17;1.97;;;17.10;62.20;17.70;101571.00;;;;4964827;28;20585;-48
2022/10/12 07:37:17;;;;;;;1.87;1.77;;;17.10;62.30;17.70;101576.00;;;;4951659;28;20195;-50
2022/10/12 07:39:43;;;;;;;2.07;1.93;;;17.10;62.30;17.70;101575.00;;;;4951188;28;20273;-49
2022/10/12 07:42:10;;;;;;;2.00;1.90;;;17.00;62.30;17.70;101568.00;;;;4951162;29;20183;-50
2022/10/12 07:44:39;;;;;;;2.10;1.90;;;17.00;62.30;17.70;101569.00;;;;4965634;28;20627;-50
2022/10/12 07:47:06;;;;;;;1.90;1.73;;;17.00;62.40;17.70;101562.00;;;;4976364;28;20205;-49
2022/10/12 07:49:32;;;;;;;2.20;2.00;;;17.00;62.60;17.70;101557.00;;;;4968701;28;20198;-50
2022/10/12 07:51:58;;;;;;;2.20;1.90;;;17.10;62.90;17.70;101558.00;;;;4969827;28;20189;-49
2022/10/12 07:54:28;;;;;;;2.17;1.97;;;17.10;62.80;17.70;101559.00;;;;4952496;28;20291;-49
2022/10/12 07:56:58;;;;;;;3.23;1.90;;;17.20;62.70;17.60;101488.00;;;;4883455;28;20208;-50
2022/10/12 07:59:24;;;;;;;5.60;2.10;;;17.30;62.50;17.80;101559.00;;;;4946501;28;20589;-49
2022/10/12 08:01:50;;;;;;;7.43;2.10;;;17.50;62.80;17.90;101554.00;;;;4977543;28;20738;-49
2022/10/12 08:04:16;;;;;;;7.77;2.17;;;17.60;62.50;18.00;101550.00;;;;4969520;28;20216;-49
2022/10/12 08:06:42;;;;;;;2.57;2.10;;;17.60;62.30;18.00;101550.00;;;;4969208;28;20231;-49
2022/10/12 08:09:08;;;;;;;4.23;2.00;;;17.70;62.30;18.10;101549.00;;;;4969947;28;20179;-49
2022/10/12 08:11:38;;;;;;;4.23;2.10;;;17.70;62.30;18.10;101558.00;;;;4968809;28;20180;-54
2022/10/12 08:14:04;;;;;;;4.63;2.00;;;17.80;62.50;18.20;101570.00;;;;4969745;28;20187;-51
2022/10/12 08:16:30;;;;;;;2.90;1.90;;;17.70;62.40;18.20;101562.00;;;;4970206;28;20491;-49
2022/10/12 08:18:55;;;;;;;2.00;1.90;;;17.70;62.50;18.20;101560.00;;;;4970075;28;20640;-49
2022/10/12 08:21:21;;;;;;;2.20;2.00;;;17.70;62.50;18.20;101564.00;;;;4982656;28;20182;-50
2022/10/12 08:23:47;;;;;;;1.97;1.87;;;17.70;62.60;18.20;101566.00;;;;4989584;28;20189;-50
2022/10/12 08:26:13;;;;;;;2.23;2.03;;;17.70;62.60;18.20;101561.00;;;;4989881;28;20201;-49
2022/10/12 08:28:39;;;;;;;2.27;2.00;;;17.70;62.70;18.20;101566.00;;;;4992497;28;20180;-50
2022/10/12 08:31:07;;;;;;;2.10;1.90;;;17.70;62.90;18.00;101567.00;;;;4989334;28;20541;-50
2022/10/12 08:33:33;;;;;;;4.73;2.00;;;17.70;62.90;18.20;101557.00;;;;4988359;28;20184;-50
2022/10/12 08:36:02;;;;;;;2.87;1.90;;;17.70;63.00;18.20;101564.00;;;;4989098;28;20206;-51
2022/10/12 08:38:27;;;;;;;3.33;2.00;;;17.70;63.40;18.20;101568.00;;;;4988209;28;20553;-49
2022/10/12 08:41:06;;;;;;;4.57;2.10;;;17.60;64.10;18.20;101565.00;;;;4989043;28;20255;-50
2022/10/12 08:43:51;;;;;;;5.00;1.83;;;17.60;64.90;18.20;101559.00;;;;4988795;28;20810;-50
2022/10/12 08:46:20;;;;;;;5.00;2.00;;;17.60;65.60;18.20;101554.00;;;;4991727;28;20177;-49
2022/10/12 08:49:05;;;;;;;5.67;2.10;;;17.60;66.10;18.20;101531.00;;;;4991925;28;20223;-50
2022/10/12 08:51:34;;;;;;;11.80;2.30;;;17.70;66.30;18.20;101550.00;;;;4991889;28;20648;-50
2022/10/12 08:54:05;;;;;;;10.23;2.60;;;17.70;66.20;18.30;101534.00;;;;4975600;28;20186;-50
2022/10/12 08:56:33;;;;;;;9.73;2.50;;;17.70;66.40;18.20;101543.00;;;;4975577;28;20271;-50
2022/10/12 08:59:00;;;;;;;13.30;2.50;;;17.70;66.80;18.20;101540.00;;;;4991818;28;20180;-50
2022/10/12 09:01:38;;;;;;;23.07;3.60;;;17.60;66.90;18.20;101545.00;;;;4991824;28;20246;-50
2022/10/12 09:04:31;;;;;;;12.07;3.10;;;17.70;67.90;18.30;101554.00;;;;4975605;28;20179;-50
2022/10/12 09:07:09;;;;;;;16.80;2.80;;;17.70;67.80;18.30;101536.00;;;;4993283;28;20199;-50
2022/10/12 09:10:23;;;;;;;12.80;2.70;;;17.70;67.90;18.30;101550.00;;;;4992677;28;20195;-50
2022/10/12 09:13:36;;;;;;;14.27;2.80;;;17.70;67.60;18.30;101541.00;;;;4983179;28;20185;-49
2022/10/12 09:16:05;;;;;;;10.50;2.63;;;17.70;67.60;18.30;101538.00;;;;4959430;28;20232;-50
2022/10/12 09:18:43;;;;;;;12.93;2.60;;;17.70;67.80;18.30;101541.00;;;;4973007;28;20529;-49
2022/10/12 09:21:17;;;;;;;15.87;2.97;;;17.70;67.80;18.10;101549.00;;;;4971770;28;20194;-49
2022/10/12 09:23:43;;;;;;;16.43;2.70;;;17.70;68.40;18.30;101545.00;;;;4972200;28;20730;-49
2022/10/12 09:26:38;;;;;;;12.37;2.73;;;17.70;68.20;18.30;101533.00;;;;4972049;28;20183;-50
2022/10/12 09:29:31;;;;;;;13.63;3.17;;;17.70;68.30;18.30;101539.00;;;;4972335;28;20196;-49
2022/10/12 09:32:33;;;;;;;10.70;2.73;;;17.70;68.80;18.30;101544.00;;;;4971997;28;20197;-49
2022/10/12 09:34:59;;;;;;;10.13;2.30;;;17.80;69.50;18.30;101548.00;;;;4973087;28;20246;-50
2022/10/12 09:37:27;;;;;;;12.27;2.60;;;17.80;69.80;18.40;101545.00;;;;4973289;28;20498;-49
2022/10/12 09:39:53;;;;;;;13.43;3.00;;;17.80;70.10;18.40;101544.00;;;;4971351;28;20222;-50
2022/10/12 09:42:18;;;;;;;13.60;2.77;;;17.80;70.00;18.40;101540.00;;;;4970936;28;20171;-48
2022/10/12 09:45:12;;;;;;;13.33;2.73;;;17.80;70.20;18.40;101546.00;;;;4971790;28;20655;-49
2022/10/12 09:47:38;;;;;;;14.50;2.80;;;17.80;70.10;18.40;101541.00;;;;4971259;28;20784;-49
2022/10/12 09:50:05;;;;;;;8.53;2.43;;;17.80;69.70;18.40;101543.00;;;;4971001;28;20550;-48
2022/10/12 09:52:34;;;;;;;11.33;2.33;;;17.80;69.70;18.40;101549.00;;;;4971585;28;20196;-49
2022/10/12 09:55:17;;;;;;;7.90;2.23;;;17.70;69.20;18.40;101554.00;;;;4971262;28;20206;-49
2022/10/12 09:57:50;;;;;;;7.57;2.50;;;17.70;69.00;18.40;101547.00;;;;4970957;28;20208;-49
2022/10/12 10:00:27;;;;;;;5.33;2.10;;;17.70;68.90;18.40;101549.00;;;;4971693;28;20193;-48
2022/10/12 10:02:53;;;;;;;6.00;2.27;;;17.70;68.70;18.40;101544.00;;;;4971150;28;20196;-49
2022/10/12 10:05:33;;;;;;;4.90;2.20;;;17.70;68.70;18.40;101549.00;;;;4970526;28;20275;-49
2022/10/12 10:08:13;;;;;;;10.07;2.60;;;17.70;68.70;18.40;101541.00;;;;4971630;28;20547;-48
2022/10/12 10:10:53;;;;;;;5.23;2.30;;;17.60;68.40;18.40;101542.00;;;;4972216;28;20184;-47
2022/10/12 10:13:20;;;;;;;5.03;2.10;;;17.60;68.40;18.40;101545.00;;;;4971244;28;20672;-50
2022/10/12 10:15:49;;;;;;;6.00;2.53;;;17.60;68.20;18.40;101527.00;;;;4970569;28;20224;-49
2022/10/12 10:18:28;;;;;;;5.53;2.10;;;17.70;68.30;18.40;101460.00;;;;4970550;28;20197;-49
2022/10/12 10:20:56;;;;;;;6.93;2.27;;;17.60;68.20;18.40;101544.00;;;;4970294;28;20720;-49
2022/10/12 10:23:51;;;;;;;7.30;2.40;;;17.70;68.30;18.40;101542.00;;;;4969985;28;20173;-49
2022/10/12 10:26:19;;;;;;;6.63;2.70;;;17.60;68.10;18.40;101546.00;;;;4973052;28;20212;-50
2022/10/12 10:28:46;;;;;;;5.50;2.50;;;17.60;68.40;18.40;101544.00;;;;4972554;28;20176;-50
2022/10/12 10:31:12;;;;;;;9.63;2.60;;;17.60;68.60;18.40;101550.00;;;;4967754;28;20184;-50
2022/10/12 10:33:38;;;;;;;8.17;2.50;;;17.60;68.50;18.40;101543.00;;;;4904457;28;20262;-48
2022/10/12 10:36:07;;;;;;;4.60;2.50;;;17.70;68.40;18.40;101550.00;;;;4970088;28;20572;-50
2022/10/12 10:39:14;;;;;;;7.90;2.43;;;17.70;68.40;18.40;101547.00;;;;4969873;28;20179;-50
2022/10/12 10:41:41;;;;;;;6.23;2.40;;;17.70;68.30;18.40;101550.00;;;;4953988;28;20182;-50
2022/10/12 10:44:25;;;;;;;5.07;2.37;;;17.70;69.30;18.20;101541.00;;;;4969732;28;20180;-49
2022/10/12 10:46:52;;;;;;;5.50;2.47;;;17.70;68.50;18.40;101528.00;;;;4969373;28;20354;-48
2022/10/12 10:49:41;;;;;;;5.60;2.43;;;17.70;68.70;18.50;101537.00;;;;4953709;28;20161;-49
2022/10/12 10:52:22;;;;;;;4.57;2.03;;;17.70;68.60;18.50;101534.00;;;;4970672;28;20194;-49
2022/10/12 10:54:48;;;;;;;6.27;2.40;;;17.70;68.50;18.50;101539.00;;;;4955245;28;20196;-49
2022/10/12 10:57:21;;;;;;;6.80;2.37;;;17.70;68.40;18.50;101517.00;;;;4970230;28;20714;-49
2022/10/12 10:59:53;;;;;;;8.27;2.67;;;17.70;68.30;18.50;101532.00;;;;4969513;28;20598;-49